sensor_id;sensor_type;location;lat;lon;timestamp;temperature;humidity
5009;DHT22;2523;51.058;6.922;2022-10-22T00:00:25;14.40;99.90
5009;DHT22;2523;51.058;6.922;2022-10-22T00:02:51;14.50;99.90
5009;DHT22;2523;51.058;6.922;2022-10-22T00:05:16;14.40;99.90
5009;DHT22;2523;51.058;6.922;2022-10-22T00:07:42;14.50;99.90
5009;DHT22;2523;51.058;6.922;2022-10-22T00:10:08;14.50;99.90
5009;DHT22;2523;51.058;6.922;2022-10-22T00:12:34;14.50;99.90
5009;DHT22;2523;51.058;6.922;2022-10-22T00:14:59;14.50;99.90
5009;DHT22;2523;51.058;6.922;2022-10-22T00:17:25;14.50;99.90
5009;DHT22;2523;51.058;6.922;2022-10-22T00:19:50;14.50;99.90
5009;DHT22;2523;51.058;6.922;2022-10-22T00:22:16;14.50;99.90
5009;DHT22;2523;51.058;6.922;2022-10-22T00:24:42;14.50;99.90
5009;DHT22;2523;51.058;6.922;2022-10-22T00:27:09;14.50;99.90
5009;DHT22;2523;51.058;6.922;2022-10-22T00:29:35;14.50;99.90
5009;DHT22;2523;51.058;6.922;2022-10-22T00:32:00;14.50;99.90
5009;DHT22;2523;51.058;6.922;2022-10-22T00:34:26;14.50;99.90
5009;DHT22;2523;51.058;6.922;2022-10-22T00:36:52;14.50;99.90
5009;DHT22;2523;51.058;6.922;2022-10-22T00:39:20;14.50;99.90
5009;DHT22;2523;51.058;6.922;2022-10-22T00:41:47;14.60;99.90
5009;DHT22;2523;51.058;6.922;2022-10-22T00:47:17;14.60;99.90
5009;DHT22;2523;51.058;6.922;2022-10-22T00:49:44;14.60;99.90
5009;DHT22;2523;51.058;6.922;2022-10-22T00:52:11;14.60;99.90
5009;DHT22;2523;51.058;6.922;2022-10-22T00:54:37;14.60;99.90
5009;DHT22;2523;51.058;6.922;2022-10-22T00:57:03;14.60;99.90
5009;DHT22;2523;51.058;6.922;2022-10-22T00:59:29;14.60;99.90
5009;DHT22;2523;51.058;6.922;2022-10-22T01:01:55;14.60;99.90
5009;DHT22;2523;51.058;6.922;2022-10-22T01:04:21;14.60;99.90
5009;DHT22;2523;51.058;6.922;2022-10-22T01:06:47;14.60;99.90
5009;DHT22;2523;51.058;6.922;2022-10-22T01:15:10;14.60;99.90
5009;DHT22;2523;51.058;6.922;2022-10-22T01:17:49;14.60;99.90
5009;DHT22;2523;51.058;6.922;2022-10-22T01:20:38;14.60;99.90
5009;DHT22;2523;51.058;6.922;2022-10-22T01:31:14;14.50;99.90
5009;DHT22;2523;51.058;6.922;2022-10-22T01:33:43;14.60;99.90
5009;DHT22;2523;51.058;6.922;2022-10-22T01:36:11;14.50;99.90
5009;DHT22;2523;51.058;6.922;2022-10-22T01:38:37;14.60;99.90
5009;DHT22;2523;51.058;6.922;2022-10-22T01:41:04;14.60;99.90
5009;DHT22;2523;51.058;6.922;2022-10-22T01:43:30;14.60;99.90
5009;DHT22;2523;51.058;6.922;2022-10-22T01:45:59;14.60;99.90
5009;DHT22;2523;51.058;6.922;2022-10-22T01:49:05;14.60;99.90
5009;DHT22;2523;51.058;6.922;2022-10-22T01:54:46;14.60;99.90
5009;DHT22;2523;51.058;6.922;2022-10-22T02:07:32;14.60;99.90
5009;DHT22;2523;51.058;6.922;2022-10-22T02:09:59;14.60;99.90
5009;DHT22;2523;51.058;6.922;2022-10-22T02:12:27;14.60;99.90
5009;DHT22;2523;51.058;6.922;2022-10-22T02:14:54;14.60;99.90
5009;DHT22;2523;51.058;6.922;2022-10-22T02:17:21;14.60;99.90
5009;DHT22;2523;51.058;6.922;2022-10-22T02:19:57;14.60;99.90
5009;DHT22;2523;51.058;6.922;2022-10-22T02:22:25;14.60;99.90
5009;DHT22;2523;51.058;6.922;2022-10-22T02:24:51;14.60;99.90
5009;DHT22;2523;51.058;6.922;2022-10-22T02:32:34;14.70;99.90
5009;DHT22;2523;51.058;6.922;2022-10-22T02:35:04;14.60;99.90
5009;DHT22;2523;51.058;6.922;2022-10-22T02:37:30;14.60;99.90
5009;DHT22;2523;51.058;6.922;2022-10-22T02:39:56;14.60;99.90
5009;DHT22;2523;51.058;6.922;2022-10-22T02:42:25;14.70;99.90
5009;DHT22;2523;51.058;6.922;2022-10-22T02:44:52;14.60;99.90
5009;DHT22;2523;51.058;6.922;2022-10-22T02:47:18;14.70;99.90
5009;DHT22;2523;51.058;6.922;2022-10-22T02:49:43;14.70;99.90
5009;DHT22;2523;51.058;6.922;2022-10-22T02:52:09;14.70;99.90
5009;DHT22;2523;51.058;6.922;2022-10-22T02:54:34;14.60;99.90
5009;DHT22;2523;51.058;6.922;2022-10-22T02:57:00;14.60;99.90
5009;DHT22;2523;51.058;6.922;2022-10-22T02:59:26;14.60;99.90
5009;DHT22;2523;51.058;6.922;2022-10-22T03:01:51;14.50;99.90
5009;DHT22;2523;51.058;6.922;2022-10-22T03:04:17;14.50;99.90
5009;DHT22;2523;51.058;6.922;2022-10-22T03:06:42;14.40;99.90
5009;DHT22;2523;51.058;6.922;2022-10-22T03:09:09;14.40;99.90
5009;DHT22;2523;51.058;6.922;2022-10-22T03:11:35;14.40;99.90
5009;DHT22;2523;51.058;6.922;2022-10-22T03:14:00;14.40;99.90
5009;DHT22;2523;51.058;6.922;2022-10-22T03:16:26;14.30;99.90
5009;DHT22;2523;51.058;6.922;2022-10-22T03:18:51;14.30;99.90
5009;DHT22;2523;51.058;6.922;2022-10-22T03:21:29;14.30;99.90
5009;DHT22;2523;51.058;6.922;2022-10-22T03:23:57;14.30;99.90
5009;DHT22;2523;51.058;6.922;2022-10-22T03:26:24;14.20;99.90
5009;DHT22;2523;51.058;6.922;2022-10-22T03:28:49;14.20;99.90
5009;DHT22;2523;51.058;6.922;2022-10-22T03:31:15;14.20;99.90
5009;DHT22;2523;51.058;6.922;2022-10-22T03:33:41;14.20;99.90
5009;DHT22;2523;51.058;6.922;2022-10-22T03:36:07;14.20;99.90
5009;DHT22;2523;51.058;6.922;2022-10-22T03:38:35;14.20;99.90
5009;DHT22;2523;51.058;6.922;2022-10-22T03:41:01;14.10;99.90
5009;DHT22;2523;51.058;6.922;2022-10-22T03:43:27;14.10;99.90
5009;DHT22;2523;51.058;6.922;2022-10-22T03:45:52;14.10;99.90
5009;DHT22;2523;51.058;6.922;2022-10-22T03:48:18;14.10;99.90
5009;DHT22;2523;51.058;6.922;2022-10-22T03:50:43;14.10;99.90
5009;DHT22;2523;51.058;6.922;2022-10-22T03:53:09;14.10;99.90
5009;DHT22;2523;51.058;6.922;2022-10-22T03:55:35;14.00;99.90
5009;DHT22;2523;51.058;6.922;2022-10-22T03:58:03;14.10;99.90
5009;DHT22;2523;51.058;6.922;2022-10-22T04:00:28;14.10;99.90
5009;DHT22;2523;51.058;6.922;2022-10-22T04:02:54;14.10;99.90
5009;DHT22;2523;51.058;6.922;2022-10-22T04:05:19;14.20;99.90
5009;DHT22;2523;51.058;6.922;2022-10-22T04:07:45;14.20;99.90
5009;DHT22;2523;51.058;6.922;2022-10-22T04:10:10;14.20;99.90
5009;DHT22;2523;51.058;6.922;2022-10-22T04:12:36;14.20;99.90
5009;DHT22;2523;51.058;6.922;2022-10-22T04:15:02;14.20;99.90
5009;DHT22;2523;51.058;6.922;2022-10-22T04:17:35;14.20;99.90
5009;DHT22;2523;51.058;6.922;2022-10-22T04:20:02;14.10;99.90
5009;DHT22;2523;51.058;6.922;2022-10-22T04:22:28;14.10;99.90
5009;DHT22;2523;51.058;6.922;2022-10-22T04:24:53;14.20;99.90
5009;DHT22;2523;51.058;6.922;2022-10-22T04:27:19;14.10;99.90
5009;DHT22;2523;51.058;6.922;2022-10-22T04:29:44;14.10;99.90
5009;DHT22;2523;51.058;6.922;2022-10-22T04:32:10;14.10;99.90
5009;DHT22;2523;51.058;6.922;2022-10-22T04:34:35;14.00;99.90
5009;DHT22;2523;51.058;6.922;2022-10-22T04:37:01;14.00;99.90
5009;DHT22;2523;51.058;6.922;2022-10-22T04:39:27;14.00;99.90
5009;DHT22;2523;51.058;6.922;2022-10-22T04:41:53;14.00;99.90
5009;DHT22;2523;51.058;6.922;2022-10-22T04:44:18;14.00;99.90
5009;DHT22;2523;51.058;6.922;2022-10-22T04:46:44;13.90;99.90
5009;DHT22;2523;51.058;6.922;2022-10-22T04:49:09;13.90;99.90
5009;DHT22;2523;51.058;6.922;2022-10-22T04:51:35;13.80;99.90
5009;DHT22;2523;51.058;6.922;2022-10-22T04:54:01;13.80;99.90
5009;DHT22;2523;51.058;6.922;2022-10-22T04:56:28;13.70;99.90
5009;DHT22;2523;51.058;6.922;2022-10-22T04:58:56;13.70;99.90
5009;DHT22;2523;51.058;6.922;2022-10-22T05:01:25;13.70;99.90
5009;DHT22;2523;51.058;6.922;2022-10-22T05:03:53;13.60;99.90
5009;DHT22;2523;51.058;6.922;2022-10-22T05:06:19;13.60;99.90
5009;DHT22;2523;51.058;6.922;2022-10-22T05:08:45;13.60;99.90
5009;DHT22;2523;51.058;6.922;2022-10-22T05:11:17;13.60;99.90
5009;DHT22;2523;51.058;6.922;2022-10-22T05:13:43;13.60;99.90
5009;DHT22;2523;51.058;6.922;2022-10-22T05:16:08;13.60;99.90
5009;DHT22;2523;51.058;6.922;2022-10-22T05:18:36;13.70;99.90
5009;DHT22;2523;51.058;6.922;2022-10-22T05:21:03;13.70;99.90
5009;DHT22;2523;51.058;6.922;2022-10-22T05:23:28;13.70;99.90
5009;DHT22;2523;51.058;6.922;2022-10-22T05:25:54;13.60;99.90
5009;DHT22;2523;51.058;6.922;2022-10-22T05:28:19;13.60;99.90
5009;DHT22;2523;51.058;6.922;2022-10-22T05:30:53;13.60;99.90
5009;DHT22;2523;51.058;6.922;2022-10-22T05:33:18;13.60;99.90
5009;DHT22;2523;51.058;6.922;2022-10-22T05:35:44;13.50;99.90
5009;DHT22;2523;51.058;6.922;2022-10-22T05:38:09;13.50;99.90
5009;DHT22;2523;51.058;6.922;2022-10-22T05:40:35;13.50;99.90
5009;DHT22;2523;51.058;6.922;2022-10-22T05:43:00;13.50;99.90
5009;DHT22;2523;51.058;6.922;2022-10-22T05:45:26;13.50;99.90
5009;DHT22;2523;51.058;6.922;2022-10-22T05:47:51;13.50;99.90
5009;DHT22;2523;51.058;6.922;2022-10-22T05:50:17;13.50;99.90
5009;DHT22;2523;51.058;6.922;2022-10-22T05:52:42;13.50;99.90
5009;DHT22;2523;51.058;6.922;2022-10-22T05:55:08;13.50;99.90
5009;DHT22;2523;51.058;6.922;2022-10-22T05:57:33;13.60;99.90
5009;DHT22;2523;51.058;6.922;2022-10-22T05:59:59;13.60;99.90
5009;DHT22;2523;51.058;6.922;2022-10-22T06:02:24;13.60;99.90
5009;DHT22;2523;51.058;6.922;2022-10-22T06:04:50;13.50;99.90
5009;DHT22;2523;51.058;6.922;2022-10-22T06:07:15;13.50;99.90
5009;DHT22;2523;51.058;6.922;2022-10-22T06:09:41;13.60;99.90
5009;DHT22;2523;51.058;6.922;2022-10-22T06:12:07;13.60;99.90
5009;DHT22;2523;51.058;6.922;2022-10-22T06:14:37;13.60;99.90
5009;DHT22;2523;51.058;6.922;2022-10-22T06:17:03;13.60;99.90
5009;DHT22;2523;51.058;6.922;2022-10-22T06:19:28;13.70;99.90
5009;DHT22;2523;51.058;6.922;2022-10-22T06:21:55;13.70;99.90
5009;DHT22;2523;51.058;6.922;2022-10-22T06:24:21;13.70;99.90
5009;DHT22;2523;51.058;6.922;2022-10-22T06:26:50;13.70;99.90
5009;DHT22;2523;51.058;6.922;2022-10-22T06:29:16;13.70;99.90
5009;DHT22;2523;51.058;6.922;2022-10-22T06:31:41;13.80;99.90
5009;DHT22;2523;51.058;6.922;2022-10-22T06:34:10;13.80;99.90
5009;DHT22;2523;51.058;6.922;2022-10-22T06:36:36;13.80;99.90
5009;DHT22;2523;51.058;6.922;2022-10-22T06:39:03;13.80;99.90
5009;DHT22;2523;51.058;6.922;2022-10-22T06:41:29;13.80;99.90
5009;DHT22;2523;51.058;6.922;2022-10-22T06:43:55;13.80;99.90
5009;DHT22;2523;51.058;6.922;2022-10-22T06:46:22;13.80;99.90
5009;DHT22;2523;51.058;6.922;2022-10-22T06:48:50;13.90;99.90
5009;DHT22;2523;51.058;6.922;2022-10-22T06:51:16;13.80;99.90
5009;DHT22;2523;51.058;6.922;2022-10-22T06:53:42;13.80;99.90
5009;DHT22;2523;51.058;6.922;2022-10-22T06:56:13;13.90;99.90
5009;DHT22;2523;51.058;6.922;2022-10-22T06:58:39;13.90;99.90
5009;DHT22;2523;51.058;6.922;2022-10-22T07:01:13;13.90;99.90
5009;DHT22;2523;51.058;6.922;2022-10-22T07:03:40;13.90;99.90
5009;DHT22;2523;51.058;6.922;2022-10-22T07:06:08;13.90;99.90
5009;DHT22;2523;51.058;6.922;2022-10-22T07:08:34;13.90;99.90
5009;DHT22;2523;51.058;6.922;2022-10-22T07:11:17;13.90;99.90
5009;DHT22;2523;51.058;6.922;2022-10-22T07:13:43;14.00;99.90
5009;DHT22;2523;51.058;6.922;2022-10-22T07:16:10;14.00;99.90
5009;DHT22;2523;51.058;6.922;2022-10-22T07:18:37;14.10;99.90
5009;DHT22;2523;51.058;6.922;2022-10-22T07:21:04;14.10;99.90
5009;DHT22;2523;51.058;6.922;2022-10-22T07:23:29;14.30;99.90
5009;DHT22;2523;51.058;6.922;2022-10-22T07:25:55;14.30;99.90
5009;DHT22;2523;51.058;6.922;2022-10-22T07:28:21;14.40;99.90
5009;DHT22;2523;51.058;6.922;2022-10-22T07:30:47;14.50;99.90
5009;DHT22;2523;51.058;6.922;2022-10-22T07:33:13;14.60;99.90
5009;DHT22;2523;51.058;6.922;2022-10-22T07:35:39;14.70;99.90
5009;DHT22;2523;51.058;6.922;2022-10-22T07:38:06;14.80;99.90
5009;DHT22;2523;51.058;6.922;2022-10-22T07:40:33;14.90;99.90
5009;DHT22;2523;51.058;6.922;2022-10-22T07:42:58;15.00;99.90
5009;DHT22;2523;51.058;6.922;2022-10-22T07:45:24;15.10;99.90
5009;DHT22;2523;51.058;6.922;2022-10-22T07:47:50;15.20;99.90
5009;DHT22;2523;51.058;6.922;2022-10-22T07:50:16;15.30;99.90
5009;DHT22;2523;51.058;6.922;2022-10-22T07:52:42;15.30;99.90
5009;DHT22;2523;51.058;6.922;2022-10-22T07:55:08;15.30;99.90
5009;DHT22;2523;51.058;6.922;2022-10-22T07:57:34;15.30;99.90
5009;DHT22;2523;51.058;6.922;2022-10-22T08:00:03;15.30;99.90
5009;DHT22;2523;51.058;6.922;2022-10-22T08:02:29;15.30;99.90
5009;DHT22;2523;51.058;6.922;2022-10-22T08:04:54;15.40;99.90
5009;DHT22;2523;51.058;6.922;2022-10-22T08:07:21;15.60;99.90
5009;DHT22;2523;51.058;6.922;2022-10-22T08:09:47;15.70;99.90
5009;DHT22;2523;51.058;6.922;2022-10-22T08:12:13;15.80;99.90
5009;DHT22;2523;51.058;6.922;2022-10-22T08:14:38;15.80;99.90
5009;DHT22;2523;51.058;6.922;2022-10-22T08:17:04;15.90;99.90
5009;DHT22;2523;51.058;6.922;2022-10-22T08:19:29;16.00;99.90
5009;DHT22;2523;51.058;6.922;2022-10-22T08:21:57;16.00;99.90
5009;DHT22;2523;51.058;6.922;2022-10-22T08:24:23;15.90;99.90
5009;DHT22;2523;51.058;6.922;2022-10-22T08:26:52;15.90;99.90
5009;DHT22;2523;51.058;6.922;2022-10-22T08:29:18;15.80;99.90
5009;DHT22;2523;51.058;6.922;2022-10-22T08:31:46;15.70;99.90
5009;DHT22;2523;51.058;6.922;2022-10-22T08:34:11;15.70;99.90
5009;DHT22;2523;51.058;6.922;2022-10-22T08:36:37;15.60;99.90
5009;DHT22;2523;51.058;6.922;2022-10-22T08:39:02;15.60;99.90
5009;DHT22;2523;51.058;6.922;2022-10-22T08:41:28;15.60;99.90
5009;DHT22;2523;51.058;6.922;2022-10-22T08:44:20;15.60;99.90
5009;DHT22;2523;51.058;6.922;2022-10-22T08:49:37;15.60;99.90
5009;DHT22;2523;51.058;6.922;2022-10-22T08:52:03;15.60;99.90
5009;DHT22;2523;51.058;6.922;2022-10-22T08:54:52;15.60;99.90
5009;DHT22;2523;51.058;6.922;2022-10-22T08:57:32;15.60;99.90
5009;DHT22;2523;51.058;6.922;2022-10-22T09:00:09;15.70;99.90
5009;DHT22;2523;51.058;6.922;2022-10-22T09:08:13;16.00;99.90
5009;DHT22;2523;51.058;6.922;2022-10-22T09:10:45;16.10;99.90
5009;DHT22;2523;51.058;6.922;2022-10-22T09:13:17;16.20;99.90
5009;DHT22;2523;51.058;6.922;2022-10-22T09:15:47;16.20;99.90
5009;DHT22;2523;51.058;6.922;2022-10-22T09:21:02;16.30;99.90
5009;DHT22;2523;51.058;6.922;2022-10-22T09:24:35;16.40;99.90
5009;DHT22;2523;51.058;6.922;2022-10-22T09:26:37;16.40;99.90
5009;DHT22;2523;51.058;6.922;2022-10-22T09:29:04;16.40;99.90
5009;DHT22;2523;51.058;6.922;2022-10-22T09:31:31;16.40;99.90
5009;DHT22;2523;51.058;6.922;2022-10-22T09:33:58;16.40;99.90
5009;DHT22;2523;51.058;6.922;2022-10-22T09:36:27;16.40;99.90
5009;DHT22;2523;51.058;6.922;2022-10-22T09:38:53;16.40;99.90
5009;DHT22;2523;51.058;6.922;2022-10-22T09:41:24;16.40;99.90
5009;DHT22;2523;51.058;6.922;2022-10-22T09:43:50;16.40;99.90
5009;DHT22;2523;51.058;6.922;2022-10-22T09:46:19;16.40;99.90
5009;DHT22;2523;51.058;6.922;2022-10-22T09:51:48;16.40;99.90
5009;DHT22;2523;51.058;6.922;2022-10-22T09:54:20;16.40;99.90
5009;DHT22;2523;51.058;6.922;2022-10-22T09:56:57;16.30;99.90
5009;DHT22;2523;51.058;6.922;2022-10-22T09:59:29;16.30;99.90
5009;DHT22;2523;51.058;6.922;2022-10-22T10:01:57;16.30;99.90
5009;DHT22;2523;51.058;6.922;2022-10-22T10:04:23;16.30;99.90
5009;DHT22;2523;51.058;6.922;2022-10-22T10:06:52;16.20;99.90
5009;DHT22;2523;51.058;6.922;2022-10-22T10:09:21;16.20;99.90
5009;DHT22;2523;51.058;6.922;2022-10-22T10:11:48;16.10;99.90
5009;DHT22;2523;51.058;6.922;2022-10-22T10:14:40;16.10;99.90
5009;DHT22;2523;51.058;6.922;2022-10-22T10:20:10;16.10;99.90
5009;DHT22;2523;51.058;6.922;2022-10-22T10:25:44;16.00;99.90
5009;DHT22;2523;51.058;6.922;2022-10-22T10:28:18;16.00;99.90
5009;DHT22;2523;51.058;6.922;2022-10-22T10:36:30;16.10;99.90
5009;DHT22;2523;51.058;6.922;2022-10-22T10:39:02;16.10;99.90
5009;DHT22;2523;51.058;6.922;2022-10-22T10:41:43;16.10;99.90
5009;DHT22;2523;51.058;6.922;2022-10-22T10:44:24;16.10;99.90
5009;DHT22;2523;51.058;6.922;2022-10-22T10:49:41;16.10;99.90
5009;DHT22;2523;51.058;6.922;2022-10-22T10:55:08;16.10;99.90
5009;DHT22;2523;51.058;6.922;2022-10-22T11:00:16;16.00;99.90
5009;DHT22;2523;51.058;6.922;2022-10-22T11:03:04;16.00;99.90
5009;DHT22;2523;51.058;6.922;2022-10-22T11:05:57;16.00;99.90
5009;DHT22;2523;51.058;6.922;2022-10-22T11:08:27;16.00;99.90
5009;DHT22;2523;51.058;6.922;2022-10-22T11:11:00;16.10;99.90
5009;DHT22;2523;51.058;6.922;2022-10-22T11:13:35;16.10;99.90
5009;DHT22;2523;51.058;6.922;2022-10-22T11:19:17;16.10;99.90
5009;DHT22;2523;51.058;6.922;2022-10-22T11:24:44;16.10;99.90
5009;DHT22;2523;51.058;6.922;2022-10-22T11:27:27;16.10;99.90
5009;DHT22;2523;51.058;6.922;2022-10-22T11:30:01;16.20;99.90
5009;DHT22;2523;51.058;6.922;2022-10-22T11:32:27;16.20;99.90
5009;DHT22;2523;51.058;6.922;2022-10-22T11:35:02;16.20;99.90
5009;DHT22;2523;51.058;6.922;2022-10-22T11:37:31;16.20;99.90
5009;DHT22;2523;51.058;6.922;2022-10-22T11:40:06;16.20;99.90
5009;DHT22;2523;51.058;6.922;2022-10-22T11:42:39;16.20;99.90
5009;DHT22;2523;51.058;6.922;2022-10-22T11:50:42;16.30;99.90
5009;DHT22;2523;51.058;6.922;2022-10-22T12:00:54;16.30;99.90
5009;DHT22;2523;51.058;6.922;2022-10-22T12:08:30;16.40;99.90
5009;DHT22;2523;51.058;6.922;2022-10-22T12:11:11;16.50;99.90
5009;DHT22;2523;51.058;6.922;2022-10-22T12:14:11;16.50;99.90
5009;DHT22;2523;51.058;6.922;2022-10-22T12:16:47;16.50;99.90
5009;DHT22;2523;51.058;6.922;2022-10-22T12:21:54;16.60;99.90
5009;DHT22;2523;51.058;6.922;2022-10-22T12:24:22;16.70;99.90
5009;DHT22;2523;51.058;6.922;2022-10-22T12:26:49;17.00;99.90
5009;DHT22;2523;51.058;6.922;2022-10-22T12:29:18;17.30;99.90
5009;DHT22;2523;51.058;6.922;2022-10-22T12:31:45;17.50;99.90
5009;DHT22;2523;51.058;6.922;2022-10-22T12:34:16;17.80;99.90
5009;DHT22;2523;51.058;6.922;2022-10-22T12:36:43;18.10;99.90
5009;DHT22;2523;51.058;6.922;2022-10-22T12:39:17;18.30;99.90
5009;DHT22;2523;51.058;6.922;2022-10-22T12:41:43;18.30;99.90
5009;DHT22;2523;51.058;6.922;2022-10-22T12:44:15;18.20;99.90
5009;DHT22;2523;51.058;6.922;2022-10-22T12:46:42;18.10;99.90
5009;DHT22;2523;51.058;6.922;2022-10-22T12:49:14;18.10;99.90
5009;DHT22;2523;51.058;6.922;2022-10-22T12:51:41;18.00;99.90
5009;DHT22;2523;51.058;6.922;2022-10-22T12:54:15;18.10;99.90
5009;DHT22;2523;51.058;6.922;2022-10-22T12:56:42;18.20;99.90
5009;DHT22;2523;51.058;6.922;2022-10-22T12:59:26;18.30;99.90
5009;DHT22;2523;51.058;6.922;2022-10-22T13:01:53;18.30;99.90
5009;DHT22;2523;51.058;6.922;2022-10-22T13:04:31;18.40;99.90
5009;DHT22;2523;51.058;6.922;2022-10-22T13:09:44;18.20;99.90
5009;DHT22;2523;51.058;6.922;2022-10-22T13:12:11;18.10;99.90
5009;DHT22;2523;51.058;6.922;2022-10-22T13:14:42;18.00;99.90
5009;DHT22;2523;51.058;6.922;2022-10-22T13:17:15;17.90;99.90
5009;DHT22;2523;51.058;6.922;2022-10-22T13:22:31;18.00;99.90
5009;DHT22;2523;51.058;6.922;2022-10-22T13:25:02;18.10;99.90
5009;DHT22;2523;51.058;6.922;2022-10-22T13:27:29;18.00;99.90
5009;DHT22;2523;51.058;6.922;2022-10-22T13:29:56;18.00;99.90
5009;DHT22;2523;51.058;6.922;2022-10-22T13:32:28;18.10;99.90
5009;DHT22;2523;51.058;6.922;2022-10-22T13:34:59;18.10;99.90
5009;DHT22;2523;51.058;6.922;2022-10-22T13:37:27;18.10;99.90
5009;DHT22;2523;51.058;6.922;2022-10-22T13:39:53;18.10;99.90
5009;DHT22;2523;51.058;6.922;2022-10-22T13:42:19;18.10;99.90
5009;DHT22;2523;51.058;6.922;2022-10-22T13:44:44;18.20;99.90
5009;DHT22;2523;51.058;6.922;2022-10-22T13:47:28;18.20;99.90
5009;DHT22;2523;51.058;6.922;2022-10-22T13:49:55;18.30;99.90
5009;DHT22;2523;51.058;6.922;2022-10-22T13:52:41;18.20;99.90
5009;DHT22;2523;51.058;6.922;2022-10-22T13:55:20;18.10;99.90
5009;DHT22;2523;51.058;6.922;2022-10-22T13:57:46;18.10;99.90
5009;DHT22;2523;51.058;6.922;2022-10-22T14:00:17;18.10;99.90
5009;DHT22;2523;51.058;6.922;2022-10-22T14:02:45;18.20;99.90
5009;DHT22;2523;51.058;6.922;2022-10-22T14:05:12;18.20;99.90
5009;DHT22;2523;51.058;6.922;2022-10-22T14:07:38;18.10;99.90
5009;DHT22;2523;51.058;6.922;2022-10-22T14:10:23;18.20;99.90
5009;DHT22;2523;51.058;6.922;2022-10-22T14:12:50;18.10;99.90
5009;DHT22;2523;51.058;6.922;2022-10-22T14:15:18;18.20;99.90
5009;DHT22;2523;51.058;6.922;2022-10-22T14:17:54;18.20;99.90
5009;DHT22;2523;51.058;6.922;2022-10-22T14:20:22;18.30;99.90
5009;DHT22;2523;51.058;6.922;2022-10-22T14:22:49;18.20;99.90
5009;DHT22;2523;51.058;6.922;2022-10-22T14:25:18;18.10;99.90
5009;DHT22;2523;51.058;6.922;2022-10-22T14:27:44;18.00;99.90
5009;DHT22;2523;51.058;6.922;2022-10-22T14:30:18;17.90;99.90
5009;DHT22;2523;51.058;6.922;2022-10-22T14:32:44;17.80;99.90
5009;DHT22;2523;51.058;6.922;2022-10-22T14:35:15;17.70;99.90
5009;DHT22;2523;51.058;6.922;2022-10-22T14:37:41;17.70;99.90
5009;DHT22;2523;51.058;6.922;2022-10-22T14:40:08;17.60;99.90
5009;DHT22;2523;51.058;6.922;2022-10-22T14:42:37;17.60;99.90
5009;DHT22;2523;51.058;6.922;2022-10-22T14:45:05;17.60;99.90
5009;DHT22;2523;51.058;6.922;2022-10-22T14:47:31;17.50;99.90
5009;DHT22;2523;51.058;6.922;2022-10-22T14:49:57;17.50;99.90
5009;DHT22;2523;51.058;6.922;2022-10-22T14:52:22;17.50;99.90
5009;DHT22;2523;51.058;6.922;2022-10-22T14:54:48;17.50;99.90
5009;DHT22;2523;51.058;6.922;2022-10-22T14:57:13;17.50;99.90
5009;DHT22;2523;51.058;6.922;2022-10-22T14:59:41;17.50;99.90
5009;DHT22;2523;51.058;6.922;2022-10-22T15:02:10;17.50;99.90
5009;DHT22;2523;51.058;6.922;2022-10-22T15:04:36;17.40;99.90
5009;DHT22;2523;51.058;6.922;2022-10-22T15:07:02;17.40;99.90
5009;DHT22;2523;51.058;6.922;2022-10-22T15:09:27;17.40;99.90
5009;DHT22;2523;51.058;6.922;2022-10-22T15:11:53;17.40;99.90
5009;DHT22;2523;51.058;6.922;2022-10-22T15:14:18;17.40;99.90
5009;DHT22;2523;51.058;6.922;2022-10-22T15:16:44;17.40;99.90
5009;DHT22;2523;51.058;6.922;2022-10-22T15:19:10;17.30;99.90
5009;DHT22;2523;51.058;6.922;2022-10-22T15:21:35;17.30;99.90
5009;DHT22;2523;51.058;6.922;2022-10-22T15:24:01;17.30;99.90
5009;DHT22;2523;51.058;6.922;2022-10-22T15:26:26;17.20;99.90
5009;DHT22;2523;51.058;6.922;2022-10-22T15:28:53;17.20;99.90
5009;DHT22;2523;51.058;6.922;2022-10-22T15:31:46;17.20;99.90
5009;DHT22;2523;51.058;6.922;2022-10-22T15:34:12;17.10;99.90
5009;DHT22;2523;51.058;6.922;2022-10-22T15:36:42;17.10;99.90
5009;DHT22;2523;51.058;6.922;2022-10-22T15:39:08;17.00;99.90
5009;DHT22;2523;51.058;6.922;2022-10-22T15:41:35;16.90;99.90
5009;DHT22;2523;51.058;6.922;2022-10-22T15:44:00;16.90;99.90
5009;DHT22;2523;51.058;6.922;2022-10-22T15:46:26;16.80;99.90
5009;DHT22;2523;51.058;6.922;2022-10-22T15:48:53;16.80;99.90
5009;DHT22;2523;51.058;6.922;2022-10-22T15:51:19;16.70;99.90
5009;DHT22;2523;51.058;6.922;2022-10-22T15:53:56;16.70;99.90
5009;DHT22;2523;51.058;6.922;2022-10-22T15:56:22;16.70;99.90
5009;DHT22;2523;51.058;6.922;2022-10-22T15:58:52;16.60;99.90
5009;DHT22;2523;51.058;6.922;2022-10-22T16:01:18;16.60;99.90
5009;DHT22;2523;51.058;6.922;2022-10-22T16:03:43;16.50;99.90
5009;DHT22;2523;51.058;6.922;2022-10-22T16:06:09;16.50;99.90
5009;DHT22;2523;51.058;6.922;2022-10-22T16:08:35;16.40;99.90
5009;DHT22;2523;51.058;6.922;2022-10-22T16:11:01;16.40;99.90
5009;DHT22;2523;51.058;6.922;2022-10-22T16:13:26;16.30;99.90
5009;DHT22;2523;51.058;6.922;2022-10-22T16:15:52;16.20;99.90
5009;DHT22;2523;51.058;6.922;2022-10-22T16:18:19;16.20;99.90
5009;DHT22;2523;51.058;6.922;2022-10-22T16:20:45;16.10;99.90
5009;DHT22;2523;51.058;6.922;2022-10-22T16:23:11;16.10;99.90
5009;DHT22;2523;51.058;6.922;2022-10-22T16:29:00;16.10;99.90
5009;DHT22;2523;51.058;6.922;2022-10-22T16:31:26;16.00;99.90
5009;DHT22;2523;51.058;6.922;2022-10-22T16:33:52;16.00;99.90
5009;DHT22;2523;51.058;6.922;2022-10-22T16:36:19;15.90;99.90
5009;DHT22;2523;51.058;6.922;2022-10-22T16:42:06;15.80;99.90
5009;DHT22;2523;51.058;6.922;2022-10-22T16:44:32;15.80;99.90
5009;DHT22;2523;51.058;6.922;2022-10-22T16:46:57;15.70;99.90
5009;DHT22;2523;51.058;6.922;2022-10-22T16:49:23;15.70;99.90
5009;DHT22;2523;51.058;6.922;2022-10-22T16:51:49;15.60;99.90
5009;DHT22;2523;51.058;6.922;2022-10-22T16:54:14;15.60;99.90
5009;DHT22;2523;51.058;6.922;2022-10-22T16:56:40;15.60;99.90
5009;DHT22;2523;51.058;6.922;2022-10-22T16:59:06;15.60;99.90
5009;DHT22;2523;51.058;6.922;2022-10-22T17:01:32;15.60;99.90
5009;DHT22;2523;51.058;6.922;2022-10-22T17:03:58;15.60;99.90
5009;DHT22;2523;51.058;6.922;2022-10-22T17:06:24;15.60;99.90
5009;DHT22;2523;51.058;6.922;2022-10-22T17:08:50;15.60;99.90
5009;DHT22;2523;51.058;6.922;2022-10-22T17:11:18;15.60;99.90
5009;DHT22;2523;51.058;6.922;2022-10-22T17:13:46;15.50;99.90
5009;DHT22;2523;51.058;6.922;2022-10-22T17:16:14;15.50;99.90
5009;DHT22;2523;51.058;6.922;2022-10-22T17:18:41;15.50;99.90
5009;DHT22;2523;51.058;6.922;2022-10-22T17:21:09;15.50;99.90
5009;DHT22;2523;51.058;6.922;2022-10-22T17:23:35;15.50;99.90
5009;DHT22;2523;51.058;6.922;2022-10-22T17:26:03;15.50;99.90
5009;DHT22;2523;51.058;6.922;2022-10-22T17:28:31;15.50;99.90
5009;DHT22;2523;51.058;6.922;2022-10-22T17:31:05;15.50;99.90
5009;DHT22;2523;51.058;6.922;2022-10-22T17:33:31;15.40;99.90
5009;DHT22;2523;51.058;6.922;2022-10-22T17:35:57;15.40;99.90
5009;DHT22;2523;51.058;6.922;2022-10-22T17:38:23;15.40;99.90
5009;DHT22;2523;51.058;6.922;2022-10-22T17:40:48;15.40;99.90
5009;DHT22;2523;51.058;6.922;2022-10-22T17:46:55;15.40;99.90
5009;DHT22;2523;51.058;6.922;2022-10-22T17:49:21;15.30;99.90
5009;DHT22;2523;51.058;6.922;2022-10-22T17:51:46;15.30;99.90
5009;DHT22;2523;51.058;6.922;2022-10-22T17:54:13;15.30;99.90
5009;DHT22;2523;51.058;6.922;2022-10-22T17:56:38;15.20;99.90
5009;DHT22;2523;51.058;6.922;2022-10-22T17:59:05;15.20;99.90
5009;DHT22;2523;51.058;6.922;2022-10-22T18:01:35;15.20;99.90